sensor_id;sensor_type;location;lat;lon;timestamp;pressure;altitude;pressure_sealevel;temperature;humidity
40205;BME280;26963;42.666;23.366;2023-05-11T00:00:32;95169.00;;;10.75;60.29
40205;BME280;26963;42.666;23.366;2023-05-11T00:02:58;95172.69;;;10.79;60.19
40205;BME280;26963;42.666;23.366;2023-05-11T00:05:23;95178.63;;;10.76;60.63
40205;BME280;26963;42.666;23.366;2023-05-11T00:07:49;95176.25;;;10.74;60.50
40205;BME280;26963;42.666;23.366;2023-05-11T00:10:14;95171.69;;;10.75;60.68
40205;BME280;26963;42.666;23.366;2023-05-11T00:12:40;95149.38;;;10.60;60.78
40205;BME280;26963;42.666;23.366;2023-05-11T00:15:06;95159.00;;;10.62;60.85
40205;BME280;26963;42.666;23.366;2023-05-11T00:17:32;95183.19;;;10.75;60.74
40205;BME280;26963;42.666;23.366;2023-05-11T00:20:00;95116.97;;;10.43;60.41
40205;BME280;26963;42.666;23.366;2023-05-11T00:22:26;95113.50;;;10.42;60.53
40205;BME280;26963;42.666;23.366;2023-05-11T00:24:51;95182.16;;;10.71;61.02
40205;BME280;26963;42.666;23.366;2023-05-11T00:27:17;95171.28;;;10.63;60.71
40205;BME280;26963;42.666;23.366;2023-05-11T00:29:42;95178.63;;;10.76;60.79
40205;BME280;26963;42.666;23.366;2023-05-11T00:32:08;95178.69;;;10.71;60.54
40205;BME280;26963;42.666;23.366;2023-05-11T00:34:34;95180.28;;;10.72;59.91
40205;BME280;26963;42.666;23.366;2023-05-11T00:37:00;95168.19;;;10.55;59.98
40205;BME280;26963;42.666;23.366;2023-05-11T00:39:25;95174.16;;;10.47;60.02
40205;BME280;26963;42.666;23.366;2023-05-11T00:41:51;95164.66;;;10.36;60.12
40205;BME280;26963;42.666;23.366;2023-05-11T00:44:16;94981.31;;;9.03;60.75
40205;BME280;26963;42.666;23.366;2023-05-11T00:46:42;95178.63;;;10.27;60.85
40205;BME280;26963;42.666;23.366;2023-05-11T00:49:07;95131.63;;;9.97;60.65
40205;BME280;26963;42.666;23.366;2023-05-11T00:51:35;95183.63;;;10.34;60.68
40205;BME280;26963;42.666;23.366;2023-05-11T00:54:01;95158.38;;;10.21;60.73
40205;BME280;26963;42.666;23.366;2023-05-11T00:56:30;95184.66;;;10.38;60.47
40205;BME280;26963;42.666;23.366;2023-05-11T00:58:55;95159.44;;;10.20;60.33
40205;BME280;26963;42.666;23.366;2023-05-11T01:01:21;95175.94;;;10.27;60.30
40205;BME280;26963;42.666;23.366;2023-05-11T01:03:47;95179.63;;;10.32;60.22
40205;BME280;26963;42.666;23.366;2023-05-11T01:09:16;95174.88;;;10.28;59.92
40205;BME280;26963;42.666;23.366;2023-05-11T01:11:53;95158.13;;;10.18;60.21
40205;BME280;26963;42.666;23.366;2023-05-11T01:15:00;95179.75;;;10.21;60.33
40205;BME280;26963;42.666;23.366;2023-05-11T01:20:25;95169.59;;;10.18;60.75
40205;BME280;26963;42.666;23.366;2023-05-11T01:25:41;95186.91;;;10.26;60.93
40205;BME280;26963;42.666;23.366;2023-05-11T01:31:17;95177.56;;;10.23;61.59
40205;BME280;26963;42.666;23.366;2023-05-11T01:34:01;95184.16;;;10.07;62.06
40205;BME280;26963;42.666;23.366;2023-05-11T01:36:32;95159.31;;;10.06;61.91
40205;BME280;26963;42.666;23.366;2023-05-11T01:39:04;95173.94;;;10.14;61.95
40205;BME280;26963;42.666;23.366;2023-05-11T01:41:33;95139.06;;;9.71;62.25
40205;BME280;26963;42.666;23.366;2023-05-11T01:44:04;95175.81;;;9.84;62.09
40205;BME280;26963;42.666;23.366;2023-05-11T01:46:32;95198.25;;;9.88;62.18
40205;BME280;26963;42.666;23.366;2023-05-11T01:49:00;95171.63;;;9.78;62.33
40205;BME280;26963;42.666;23.366;2023-05-11T01:51:36;95183.81;;;9.84;62.55
40205;BME280;26963;42.666;23.366;2023-05-11T01:54:05;95183.91;;;9.74;62.77
40205;BME280;26963;42.666;23.366;2023-05-11T01:56:34;95159.47;;;9.56;62.57
40205;BME280;26963;42.666;23.366;2023-05-11T01:59:00;95168.59;;;9.55;62.69
40205;BME280;26963;42.666;23.366;2023-05-11T02:01:30;95163.25;;;9.55;62.54
40205;BME280;26963;42.666;23.366;2023-05-11T02:03:59;95199.94;;;9.74;62.22
40205;BME280;26963;42.666;23.366;2023-05-11T02:06:28;95169.63;;;9.59;62.73
40205;BME280;26963;42.666;23.366;2023-05-11T02:08:56;95182.38;;;9.68;62.32
40205;BME280;26963;42.666;23.366;2023-05-11T02:11:25;95138.84;;;9.33;62.06
40205;BME280;26963;42.666;23.366;2023-05-11T02:13:52;95183.97;;;9.69;62.01
40205;BME280;26963;42.666;23.366;2023-05-11T02:16:21;95183.19;;;9.68;62.22
40205;BME280;26963;42.666;23.366;2023-05-11T02:18:48;95174.97;;;9.59;62.08
40205;BME280;26963;42.666;23.366;2023-05-11T02:21:15;95137.75;;;9.39;61.97
40205;BME280;26963;42.666;23.366;2023-05-11T02:23:42;95127.94;;;9.29;61.30
40205;BME280;26963;42.666;23.366;2023-05-11T02:26:09;95133.44;;;9.43;62.08
40205;BME280;26963;42.666;23.366;2023-05-11T02:28:36;95099.88;;;9.32;61.27
40205;BME280;26963;42.666;23.366;2023-05-11T02:31:14;95166.97;;;9.89;61.21
40205;BME280;26963;42.666;23.366;2023-05-11T02:33:43;95030.16;;;9.04;61.18
40205;BME280;26963;42.666;23.366;2023-05-11T02:36:16;95177.44;;;10.09;60.91
40205;BME280;26963;42.666;23.366;2023-05-11T02:38:45;95149.06;;;9.89;59.98
40205;BME280;26963;42.666;23.366;2023-05-11T02:41:16;95174.94;;;10.18;60.09
40205;BME280;26963;42.666;23.366;2023-05-11T02:43:48;95170.72;;;10.17;60.23
40205;BME280;26963;42.666;23.366;2023-05-11T02:46:20;95186.00;;;10.11;59.95
40205;BME280;26963;42.666;23.366;2023-05-11T02:48:53;95185.75;;;10.08;59.56
40205;BME280;26963;42.666;23.366;2023-05-11T02:51:23;95181.59;;;9.96;59.87
40205;BME280;26963;42.666;23.366;2023-05-11T02:53:53;95101.91;;;9.45;60.07
40205;BME280;26963;42.666;23.366;2023-05-11T02:56:23;95182.66;;;9.95;59.91
40205;BME280;26963;42.666;23.366;2023-05-11T02:58:48;95171.97;;;9.95;60.18
40205;BME280;26963;42.666;23.366;2023-05-11T03:01:15;95139.66;;;9.62;59.94
40205;BME280;26963;42.666;23.366;2023-05-11T03:03:41;95111.03;;;9.39;60.27
40205;BME280;26963;42.666;23.366;2023-05-11T03:06:06;95157.25;;;9.69;60.72
40205;BME280;26963;42.666;23.366;2023-05-11T03:08:32;95165.44;;;9.77;59.75
40205;BME280;26963;42.666;23.366;2023-05-11T03:10:58;95074.91;;;9.17;60.39
40205;BME280;26963;42.666;23.366;2023-05-11T03:13:26;95154.13;;;9.56;60.45
40205;BME280;26963;42.666;23.366;2023-05-11T03:15:56;95154.13;;;9.56;60.46
40205;BME280;26963;42.666;23.366;2023-05-11T03:18:25;95173.81;;;9.71;60.78
40205;BME280;26963;42.666;23.366;2023-05-11T03:20:50;95153.63;;;9.54;60.37
40205;BME280;26963;42.666;23.366;2023-05-11T03:23:17;95177.59;;;9.65;60.40
40205;BME280;26963;42.666;23.366;2023-05-11T03:25:43;95103.69;;;9.20;60.92
40205;BME280;26963;42.666;23.366;2023-05-11T03:28:11;95164.81;;;9.61;60.82
40205;BME280;26963;42.666;23.366;2023-05-11T03:30:38;95158.66;;;9.61;60.18
40205;BME280;26963;42.666;23.366;2023-05-11T03:33:05;95164.28;;;9.59;60.51
40205;BME280;26963;42.666;23.366;2023-05-11T03:35:33;95166.41;;;9.57;60.57
40205;BME280;26963;42.666;23.366;2023-05-11T03:37:59;95162.22;;;9.46;60.96
40205;BME280;26963;42.666;23.366;2023-05-11T03:40:25;95184.09;;;9.53;61.25
40205;BME280;26963;42.666;23.366;2023-05-11T03:42:55;95181.94;;;9.55;61.63
40205;BME280;26963;42.666;23.366;2023-05-11T03:45:22;95192.94;;;9.49;61.82
40205;BME280;26963;42.666;23.366;2023-05-11T03:47:51;95177.78;;;9.39;62.43
40205;BME280;26963;42.666;23.366;2023-05-11T03:50:18;95179.03;;;9.52;61.97
40205;BME280;26963;42.666;23.366;2023-05-11T03:52:46;95191.84;;;9.50;61.92
40205;BME280;26963;42.666;23.366;2023-05-11T03:55:12;95164.97;;;9.36;61.97
40205;BME280;26963;42.666;23.366;2023-05-11T03:57:38;95190.81;;;9.45;62.58
40205;BME280;26963;42.666;23.366;2023-05-11T04:00:05;95204.75;;;9.42;62.79
40205;BME280;26963;42.666;23.366;2023-05-11T04:02:33;95172.78;;;9.27;63.00
40205;BME280;26963;42.666;23.366;2023-05-11T04:04:59;95157.91;;;9.16;63.22
40205;BME280;26963;42.666;23.366;2023-05-11T04:07:24;95161.63;;;9.20;63.28
40205;BME280;26963;42.666;23.366;2023-05-11T04:09:50;95139.59;;;8.98;63.29
40205;BME280;26963;42.666;23.366;2023-05-11T04:12:16;95180.53;;;9.28;63.27
40205;BME280;26963;42.666;23.366;2023-05-11T04:14:41;95044.22;;;8.30;63.56
40205;BME280;26963;42.666;23.366;2023-05-11T04:17:07;95198.59;;;9.42;63.77
40205;BME280;26963;42.666;23.366;2023-05-11T04:19:32;95183.22;;;9.28;63.86
40205;BME280;26963;42.666;23.366;2023-05-11T04:21:58;95146.56;;;9.00;64.40
40205;BME280;26963;42.666;23.366;2023-05-11T04:24:23;95197.59;;;9.33;64.00
40205;BME280;26963;42.666;23.366;2023-05-11T04:26:54;95165.59;;;9.27;64.09
40205;BME280;26963;42.666;23.366;2023-05-11T04:29:20;95173.53;;;9.38;63.81
40205;BME280;26963;42.666;23.366;2023-05-11T04:31:46;95212.69;;;9.53;64.21
40205;BME280;26963;42.666;23.366;2023-05-11T04:36:59;95213.00;;;9.41;64.49
40205;BME280;26963;42.666;23.366;2023-05-11T04:39:31;95206.06;;;9.45;64.50
40205;BME280;26963;42.666;23.366;2023-05-11T04:41:58;95203.41;;;9.40;64.19
40205;BME280;26963;42.666;23.366;2023-05-11T04:44:23;95192.25;;;9.33;64.64
40205;BME280;26963;42.666;23.366;2023-05-11T04:46:53;95210.34;;;9.41;64.44
40205;BME280;26963;42.666;23.366;2023-05-11T04:49:18;95142.31;;;8.93;64.50
40205;BME280;26963;42.666;23.366;2023-05-11T04:51:44;95211.97;;;9.37;64.58
40205;BME280;26963;42.666;23.366;2023-05-11T04:54:10;95157.25;;;8.94;64.93
40205;BME280;26963;42.666;23.366;2023-05-11T04:56:35;95199.22;;;9.23;65.13
40205;BME280;26963;42.666;23.366;2023-05-11T04:59:05;95217.28;;;9.42;65.12
40205;BME280;26963;42.666;23.366;2023-05-11T05:01:31;95174.78;;;9.11;65.17
40205;BME280;26963;42.666;23.366;2023-05-11T05:03:56;95168.94;;;9.04;65.21
40205;BME280;26963;42.666;23.366;2023-05-11T05:06:22;95146.59;;;8.94;65.23
40205;BME280;26963;42.666;23.366;2023-05-11T05:08:47;95221.06;;;9.36;64.73
40205;BME280;26963;42.666;23.366;2023-05-11T05:11:13;95217.34;;;9.32;65.22
40205;BME280;26963;42.666;23.366;2023-05-11T05:13:39;95184.34;;;9.17;64.98
40205;BME280;26963;42.666;23.366;2023-05-11T05:16:04;95231.19;;;9.39;65.16
40205;BME280;26963;42.666;23.366;2023-05-11T05:18:30;95218.88;;;9.43;64.88
40205;BME280;26963;42.666;23.366;2023-05-11T05:20:55;95235.41;;;9.50;64.98
40205;BME280;26963;42.666;23.366;2023-05-11T05:23:21;95238.66;;;9.42;65.01
40205;BME280;26963;42.666;23.366;2023-05-11T05:25:46;95221.84;;;9.41;65.23
40205;BME280;26963;42.666;23.366;2023-05-11T05:28:12;95178.19;;;9.17;65.50
40205;BME280;26963;42.666;23.366;2023-05-11T05:30:37;95213.38;;;9.29;65.48
40205;BME280;26963;42.666;23.366;2023-05-11T05:33:03;95187.59;;;9.09;65.28
40205;BME280;26963;42.666;23.366;2023-05-11T05:35:29;95197.69;;;9.12;65.66
40205;BME280;26963;42.666;23.366;2023-05-11T05:37:55;95203.75;;;9.28;65.55
40205;BME280;26963;42.666;23.366;2023-05-11T05:40:20;95191.72;;;9.30;65.09
40205;BME280;26963;42.666;23.366;2023-05-11T05:42:46;95247.06;;;9.65;64.97
40205;BME280;26963;42.666;23.366;2023-05-11T05:45:12;95241.47;;;9.61;65.00
40205;BME280;26963;42.666;23.366;2023-05-11T05:47:37;95221.56;;;9.43;64.87
40205;BME280;26963;42.666;23.366;2023-05-11T05:50:05;95247.84;;;9.65;64.57
40205;BME280;26963;42.666;23.366;2023-05-11T05:52:31;95241.41;;;9.66;64.56
40205;BME280;26963;42.666;23.366;2023-05-11T05:54:56;95187.94;;;9.37;64.43
40205;BME280;26963;42.666;23.366;2023-05-11T05:57:22;95253.38;;;9.74;64.66
40205;BME280;26963;42.666;23.366;2023-05-11T05:59:47;95264.03;;;9.79;64.52
40205;BME280;26963;42.666;23.366;2023-05-11T06:02:13;95237.97;;;9.66;64.39
40205;BME280;26963;42.666;23.366;2023-05-11T06:04:39;95242.69;;;9.74;64.41
40205;BME280;26963;42.666;23.366;2023-05-11T06:07:06;95232.63;;;9.66;63.92
40205;BME280;26963;42.666;23.366;2023-05-11T06:09:31;95224.16;;;9.53;63.99
40205;BME280;26963;42.666;23.366;2023-05-11T06:12:00;95110.91;;;8.80;64.22
40205;BME280;26963;42.666;23.366;2023-05-11T06:14:26;95265.38;;;9.76;64.17
40205;BME280;26963;42.666;23.366;2023-05-11T06:16:51;95242.28;;;9.61;64.27
40205;BME280;26963;42.666;23.366;2023-05-11T06:19:18;95205.00;;;9.41;64.37
40205;BME280;26963;42.666;23.366;2023-05-11T06:21:43;95270.53;;;9.68;64.54
40205;BME280;26963;42.666;23.366;2023-05-11T06:24:10;95272.72;;;9.60;64.54
40205;BME280;26963;42.666;23.366;2023-05-11T06:26:36;95196.63;;;9.13;64.48
40205;BME280;26963;42.666;23.366;2023-05-11T06:29:01;95260.44;;;9.59;64.36
40205;BME280;26963;42.666;23.366;2023-05-11T06:31:30;95206.19;;;9.24;63.99
40205;BME280;26963;42.666;23.366;2023-05-11T06:33:56;95272.16;;;9.63;64.27
40205;BME280;26963;42.666;23.366;2023-05-11T06:36:23;95257.00;;;9.54;64.26
40205;BME280;26963;42.666;23.366;2023-05-11T06:38:49;95273.69;;;9.75;63.77
40205;BME280;26963;42.666;23.366;2023-05-11T06:41:15;95198.72;;;9.21;63.70
40205;BME280;26963;42.666;23.366;2023-05-11T06:43:40;95249.41;;;9.32;63.86
40205;BME280;26963;42.666;23.366;2023-05-11T06:46:06;95269.56;;;9.53;64.22
40205;BME280;26963;42.666;23.366;2023-05-11T06:48:32;95290.28;;;9.72;64.18
40205;BME280;26963;42.666;23.366;2023-05-11T06:51:00;95293.25;;;9.65;64.47
40205;BME280;26963;42.666;23.366;2023-05-11T06:53:26;95264.75;;;9.55;63.48
40205;BME280;26963;42.666;23.366;2023-05-11T06:55:53;95243.09;;;9.57;63.77
40205;BME280;26963;42.666;23.366;2023-05-11T06:58:18;95225.81;;;9.44;63.15
40205;BME280;26963;42.666;23.366;2023-05-11T07:00:45;95232.19;;;9.48;63.29
40205;BME280;26963;42.666;23.366;2023-05-11T07:03:10;95288.63;;;9.81;63.00
40205;BME280;26963;42.666;23.366;2023-05-11T07:05:36;95271.03;;;9.75;63.24
40205;BME280;26963;42.666;23.366;2023-05-11T07:08:02;95211.41;;;9.40;62.95
40205;BME280;26963;42.666;23.366;2023-05-11T07:10:30;95271.84;;;9.70;63.70
40205;BME280;26963;42.666;23.366;2023-05-11T07:12:55;95269.47;;;9.69;63.91
40205;BME280;26963;42.666;23.366;2023-05-11T07:15:21;95271.38;;;9.63;64.04
40205;BME280;26963;42.666;23.366;2023-05-11T07:17:46;95279.53;;;9.82;63.69
40205;BME280;26963;42.666;23.366;2023-05-11T07:20:12;95272.59;;;9.81;63.77
40205;BME280;26963;42.666;23.366;2023-05-11T07:22:37;95230.03;;;9.55;63.06
40205;BME280;26963;42.666;23.366;2023-05-11T07:25:03;95255.00;;;9.75;63.11
40205;BME280;26963;42.666;23.366;2023-05-11T07:27:29;95282.19;;;10.17;63.00
40205;BME280;26963;42.666;23.366;2023-05-11T07:29:55;95243.00;;;10.02;62.41
40205;BME280;26963;42.666;23.366;2023-05-11T07:32:21;95279.66;;;10.31;61.15
40205;BME280;26963;42.666;23.366;2023-05-11T07:34:47;95291.91;;;10.42;61.03
40205;BME280;26963;42.666;23.366;2023-05-11T07:37:13;95278.53;;;10.42;61.47
40205;BME280;26963;42.666;23.366;2023-05-11T07:39:39;95277.59;;;10.57;60.23
40205;BME280;26963;42.666;23.366;2023-05-11T07:42:05;95268.31;;;10.49;59.63
40205;BME280;26963;42.666;23.366;2023-05-11T07:44:30;95280.56;;;11.04;58.61
40205;BME280;26963;42.666;23.366;2023-05-11T07:46:56;95188.09;;;10.44;57.78
40205;BME280;26963;42.666;23.366;2023-05-11T07:49:26;95269.25;;;11.31;56.60
40205;BME280;26963;42.666;23.366;2023-05-11T07:51:51;95267.88;;;11.72;56.38
40205;BME280;26963;42.666;23.366;2023-05-11T07:54:17;95298.06;;;12.16;54.20
40205;BME280;26963;42.666;23.366;2023-05-11T07:56:42;95281.84;;;12.07;54.23
40205;BME280;26963;42.666;23.366;2023-05-11T07:59:08;95300.34;;;12.09;54.02
40205;BME280;26963;42.666;23.366;2023-05-11T08:01:33;95241.91;;;11.86;53.80
40205;BME280;26963;42.666;23.366;2023-05-11T08:03:59;95235.28;;;11.65;53.53
40205;BME280;26963;42.666;23.366;2023-05-11T08:06:25;95276.84;;;11.81;53.67
40205;BME280;26963;42.666;23.366;2023-05-11T08:08:50;95279.66;;;11.90;53.81
40205;BME280;26963;42.666;23.366;2023-05-11T08:11:16;95219.91;;;11.51;53.44
40205;BME280;26963;42.666;23.366;2023-05-11T08:13:41;95283.22;;;12.37;52.99
40205;BME280;26963;42.666;23.366;2023-05-11T08:16:07;95272.16;;;12.58;52.38
40205;BME280;26963;42.666;23.366;2023-05-11T08:18:33;95216.84;;;12.29;51.30
40205;BME280;26963;42.666;23.366;2023-05-11T08:20:58;95301.38;;;12.60;51.32
40205;BME280;26963;42.666;23.366;2023-05-11T08:23:24;95240.59;;;12.36;51.68
40205;BME280;26963;42.666;23.366;2023-05-11T08:25:51;95273.13;;;13.32;49.68
40205;BME280;26963;42.666;23.366;2023-05-11T08:28:18;95271.91;;;13.66;49.20
40205;BME280;26963;42.666;23.366;2023-05-11T08:30:44;95264.47;;;13.49;48.14
40205;BME280;26963;42.666;23.366;2023-05-11T08:33:10;95263.78;;;13.43;48.46
40205;BME280;26963;42.666;23.366;2023-05-11T08:35:37;95262.41;;;13.04;49.48
40205;BME280;26963;42.666;23.366;2023-05-11T08:38:03;95279.81;;;13.48;49.29
40205;BME280;26963;42.666;23.366;2023-05-11T08:40:29;95276.50;;;13.51;49.01
40205;BME280;26963;42.666;23.366;2023-05-11T08:42:55;95231.31;;;13.53;48.32
40205;BME280;26963;42.666;23.366;2023-05-11T08:45:21;95282.59;;;13.43;48.58
40205;BME280;26963;42.666;23.366;2023-05-11T08:47:48;95256.63;;;13.38;48.91
40205;BME280;26963;42.666;23.366;2023-05-11T08:50:14;95282.66;;;13.66;48.68
40205;BME280;26963;42.666;23.366;2023-05-11T08:52:40;95246.06;;;13.28;48.00
40205;BME280;26963;42.666;23.366;2023-05-11T08:55:08;95262.09;;;13.19;48.71
40205;BME280;26963;42.666;23.366;2023-05-11T08:57:33;95273.94;;;13.04;49.14
40205;BME280;26963;42.666;23.366;2023-05-11T09:00:01;95289.47;;;13.21;48.93
40205;BME280;26963;42.666;23.366;2023-05-11T09:02:30;95278.53;;;13.04;49.82
40205;BME280;26963;42.666;23.366;2023-05-11T09:05:00;95271.06;;;13.43;49.76
40205;BME280;26963;42.666;23.366;2023-05-11T09:07:28;95263.28;;;13.41;50.29
40205;BME280;26963;42.666;23.366;2023-05-11T09:09:55;95259.41;;;13.19;50.00
40205;BME280;26963;42.666;23.366;2023-05-11T09:12:21;95257.03;;;13.18;50.00
40205;BME280;26963;42.666;23.366;2023-05-11T09:14:51;95255.22;;;13.13;50.70
40205;BME280;26963;42.666;23.366;2023-05-11T09:17:17;95239.72;;;13.10;50.65
40205;BME280;26963;42.666;23.366;2023-05-11T09:20:03;95266.59;;;13.38;50.92
40205;BME280;26963;42.666;23.366;2023-05-11T09:22:39;95263.53;;;13.67;50.34
40205;BME280;26963;42.666;23.366;2023-05-11T09:25:05;95257.34;;;14.03;49.47
40205;BME280;26963;42.666;23.366;2023-05-11T09:27:31;95258.75;;;14.01;48.93
40205;BME280;26963;42.666;23.366;2023-05-11T09:30:20;95271.66;;;13.76;49.56
40205;BME280;26963;42.666;23.366;2023-05-11T09:35:34;95260.88;;;13.53;50.14
40205;BME280;26963;42.666;23.366;2023-05-11T09:40:26;95241.69;;;13.18;50.83
40205;BME280;26963;42.666;23.366;2023-05-11T09:42:52;95254.97;;;13.01;51.54
40205;BME280;26963;42.666;23.366;2023-05-11T09:45:34;95266.38;;;12.93;52.51
40205;BME280;26963;42.666;23.366;2023-05-11T09:48:02;95211.28;;;12.39;52.14
40205;BME280;26963;42.666;23.366;2023-05-11T09:50:34;95269.56;;;12.67;52.65
40205;BME280;26963;42.666;23.366;2023-05-11T09:53:00;95260.22;;;12.50;53.17
40205;BME280;26963;42.666;23.366;2023-05-11T09:55:26;95213.84;;;12.31;53.14
40205;BME280;26963;42.666;23.366;2023-05-11T09:57:54;95255.03;;;12.68;52.56
40205;BME280;26963;42.666;23.366;2023-05-11T10:00:20;95238.13;;;12.53;53.00
40205;BME280;26963;42.666;23.366;2023-05-11T10:05:28;95223.63;;;12.54;53.49
40205;BME280;26963;42.666;23.366;2023-05-11T10:08:00;95249.66;;;12.68;52.97
40205;BME280;26963;42.666;23.366;2023-05-11T10:10:27;95246.38;;;12.43;53.51
40205;BME280;26963;42.666;23.366;2023-05-11T10:13:00;95177.47;;;12.24;53.80
40205;BME280;26963;42.666;23.366;2023-05-11T10:15:31;95228.47;;;12.52;52.82
40205;BME280;26963;42.666;23.366;2023-05-11T10:18:00;95218.38;;;12.63;52.67
40205;BME280;26963;42.666;23.366;2023-05-11T10:20:26;95224.09;;;12.84;52.51
40205;BME280;26963;42.666;23.366;2023-05-11T10:22:54;95218.94;;;12.74;52.22
40205;BME280;26963;42.666;23.366;2023-05-11T10:25:21;95191.13;;;12.70;52.61
40205;BME280;26963;42.666;23.366;2023-05-11T10:27:47;95227.50;;;12.90;51.50
40205;BME280;26963;42.666;23.366;2023-05-11T10:30:13;95226.31;;;12.82;52.05
40205;BME280;26963;42.666;23.366;2023-05-11T10:32:39;95226.00;;;12.84;52.11
40205;BME280;26963;42.666;23.366;2023-05-11T10:35:05;95166.19;;;12.55;52.07
40205;BME280;26963;42.666;23.366;2023-05-11T10:37:31;95187.63;;;12.83;52.00
40205;BME280;26963;42.666;23.366;2023-05-11T10:40:00;95208.88;;;13.21;51.89
40205;BME280;26963;42.666;23.366;2023-05-11T10:59:15;95206.66;;;13.24;51.34
40205;BME280;26963;42.666;23.366;2023-05-11T11:01:46;95218.25;;;12.82;52.12
40205;BME280;26963;42.666;23.366;2023-05-11T11:04:16;95215.47;;;12.60;52.62
40205;BME280;26963;42.666;23.366;2023-05-11T11:06:43;95179.88;;;12.54;52.31
40205;BME280;26963;42.666;23.366;2023-05-11T11:09:10;95132.56;;;12.16;52.04
40205;BME280;26963;42.666;23.366;2023-05-11T11:11:48;95202.56;;;12.62;52.89
40205;BME280;26963;42.666;23.366;2023-05-11T11:14:16;95201.53;;;12.57;52.86
40205;BME280;26963;42.666;23.366;2023-05-11T11:19:42;95190.03;;;12.71;52.60
40205;BME280;26963;42.666;23.366;2023-05-11T11:24:59;95140.13;;;12.42;52.61
40205;BME280;26963;42.666;23.366;2023-05-11T11:32:53;95197.34;;;13.07;52.02
40205;BME280;26963;42.666;23.366;2023-05-11T11:38:04;95125.22;;;13.00;51.11
40205;BME280;26963;42.666;23.366;2023-05-11T11:40:38;95184.25;;;13.28;50.63
40205;BME280;26963;42.666;23.366;2023-05-11T11:43:17;95178.75;;;13.47;51.02
40205;BME280;26963;42.666;23.366;2023-05-11T11:48:24;95134.03;;;13.29;50.04
40205;BME280;26963;42.666;23.366;2023-05-11T11:51:07;95188.94;;;13.73;50.30
40205;BME280;26963;42.666;23.366;2023-05-11T11:56:05;95197.09;;;13.31;50.88
40205;BME280;26963;42.666;23.366;2023-05-11T12:01:19;95205.31;;;12.84;52.99
40205;BME280;26963;42.666;23.366;2023-05-11T12:03:49;95193.59;;;12.66;52.73
40205;BME280;26963;42.666;23.366;2023-05-11T12:06:19;95192.19;;;12.69;52.82
40205;BME280;26963;42.666;23.366;2023-05-11T12:08:47;95190.44;;;12.50;52.87
40205;BME280;26963;42.666;23.366;2023-05-11T12:11:15;95181.25;;;12.65;52.60
40205;BME280;26963;42.666;23.366;2023-05-11T12:13:42;95189.72;;;12.86;51.97
40205;BME280;26963;42.666;23.366;2023-05-11T12:16:12;95157.22;;;12.46;52.42
40205;BME280;26963;42.666;23.366;2023-05-11T12:18:42;95194.97;;;12.64;52.75
40205;BME280;26963;42.666;23.366;2023-05-11T12:21:19;95182.47;;;12.45;53.55
40205;BME280;26963;42.666;23.366;2023-05-11T12:24:14;95196.97;;;12.30;54.18
40205;BME280;26963;42.666;23.366;2023-05-11T12:26:40;95195.38;;;12.43;53.78
40205;BME280;26963;42.666;23.366;2023-05-11T12:29:14;95134.53;;;12.24;53.87
40205;BME280;26963;42.666;23.366;2023-05-11T12:31:42;95174.44;;;12.73;52.51
40205;BME280;26963;42.666;23.366;2023-05-11T12:34:20;95172.94;;;12.67;52.30
40205;BME280;26963;42.666;23.366;2023-05-11T12:36:51;95150.34;;;12.68;52.11
40205;BME280;26963;42.666;23.366;2023-05-11T12:39:24;95150.25;;;12.73;52.27
40205;BME280;26963;42.666;23.366;2023-05-11T12:41:52;95114.69;;;12.53;52.08
40205;BME280;26963;42.666;23.366;2023-05-11T12:44:19;95142.00;;;12.83;52.12
40205;BME280;26963;42.666;23.366;2023-05-11T12:46:46;95165.72;;;13.04;52.04
40205;BME280;26963;42.666;23.366;2023-05-11T12:49:20;95153.38;;;13.03;51.78
40205;BME280;26963;42.666;23.366;2023-05-11T12:51:50;95157.16;;;13.02;51.62
40205;BME280;26963;42.666;23.366;2023-05-11T12:54:35;95133.47;;;13.04;51.46
40205;BME280;26963;42.666;23.366;2023-05-11T12:57:06;95136.25;;;13.13;51.64
40205;BME280;26963;42.666;23.366;2023-05-11T12:59:39;95117.47;;;12.99;51.82
40205;BME280;26963;42.666;23.366;2023-05-11T13:02:17;95140.13;;;13.07;51.82
40205;BME280;26963;42.666;23.366;2023-05-11T13:04:44;95089.81;;;12.76;51.42
40205;BME280;26963;42.666;23.366;2023-05-11T13:07:11;95145.72;;;13.10;51.44
40205;BME280;26963;42.666;23.366;2023-05-11T13:09:37;95063.78;;;12.48;51.97
40205;BME280;26963;42.666;23.366;2023-05-11T13:14:34;95112.81;;;12.91;51.78
40205;BME280;26963;42.666;23.366;2023-05-11T13:17:00;95112.16;;;12.85;52.32
40205;BME280;26963;42.666;23.366;2023-05-11T13:19:30;95144.53;;;13.02;52.24
40205;BME280;26963;42.666;23.366;2023-05-11T13:21:56;95107.44;;;12.91;51.84
40205;BME280;26963;42.666;23.366;2023-05-11T13:24:23;95132.75;;;13.12;52.34
40205;BME280;26963;42.666;23.366;2023-05-11T13:26:50;95127.50;;;13.07;52.48
40205;BME280;26963;42.666;23.366;2023-05-11T13:29:16;95060.53;;;12.74;52.66
40205;BME280;26963;42.666;23.366;2023-05-11T13:31:50;95115.31;;;13.24;52.40
40205;BME280;26963;42.666;23.366;2023-05-11T13:34:17;95075.97;;;13.05;51.63
40205;BME280;26963;42.666;23.366;2023-05-11T13:36:43;95120.09;;;13.27;51.23
40205;BME280;26963;42.666;23.366;2023-05-11T13:39:09;95111.94;;;13.18;51.81
40205;BME280;26963;42.666;23.366;2023-05-11T13:41:35;95125.47;;;13.27;51.07
40205;BME280;26963;42.666;23.366;2023-05-11T13:44:01;95126.84;;;13.24;51.78
40205;BME280;26963;42.666;23.366;2023-05-11T13:46:30;95117.25;;;13.09;51.79
40205;BME280;26963;42.666;23.366;2023-05-11T13:48:56;95126.66;;;13.20;52.29
40205;BME280;26963;42.666;23.366;2023-05-11T13:51:25;95064.47;;;12.91;52.17
40205;BME280;26963;42.666;23.366;2023-05-11T13:53:51;95116.88;;;13.38;51.71
40205;BME280;26963;42.666;23.366;2023-05-11T13:56:17;95100.41;;;13.17;51.66
40205;BME280;26963;42.666;23.366;2023-05-11T13:58:44;95112.63;;;13.24;52.17
40205;BME280;26963;42.666;23.366;2023-05-11T14:01:09;95066.84;;;13.06;51.50